Essaouira, Morocco
Current Conditions -  °F | °C
As of 9:00 AM on Thursday 27 Nov 2014 (Local Time) from GMAD Reporting Station
Scattered Clouds Scattered Clouds  
Wind Chill: 57°   Ceiling: Unl
Heat Index: 57°   Visibility: 6mi
Dew Point: 55°   Wind: 5mph
Humidity: 94%   Direction: 180°S
Pressure: 29.85"   Gusts: NA
Location:  31.52°N, 9.77°W
Report Text: GMAD 270800Z 18004KT 9999 SCT020 SCT100 14/13 Q1011 NOSIG
Loading
Personal Weather Stations






























Interactive Weather Map New forecast layout! Learn more

10-Day Weather Forecast

Advertisements
Track Severe Weather on mobile